Flight Track Log - Related Links

Times and Time Zones

All times are in EDT time to prevent confusion due to time zone crossing. See the N588AC flight status page for this flight to view local times or setup timezone preferences in your user account.

Time Position Orientation Groundspeed Altitude Reporting Facility
EDT Latitude Longitude Course Direction KTS MPH feet Rate Location/Type
Sun 02:33:23 PM 33.9167 -84.2500 54° Northeast 171 197 3,000  Level Atlanta TRACON
Sun 02:34:23 PM 33.9500 -84.1833 59° Northeast 229 264 4,500 1,947 Climbing Atlanta TRACON
Sun 02:35:17 PM 33.9667 -84.1167 73° East 238 274 6,700 1,842 Climbing Atlanta TRACON
Sun 02:36:17 PM 33.9667 -84.0333 90° East 264 304 8,000 650 Climbing Atlanta TRACON
Sun 02:37:17 PM 33.9500 -83.9333 101° East 296 341 8,000 745 Level Atlanta TRACON
Sun 02:38:58 PM 33.9275 -83.7936 101° East 300 345 10,000 1,416 Climbing Atlanta Center
Sun 02:39:00 PM 33.9034 -83.7389 54° Northeast  Level FlightAware Approximate
Sun 02:39:58 PM 33.9525 -83.7006 72° East 292 336 11,800  Level Atlanta Center
Sun 02:40:58 PM 34.0064 -83.6178 52° Northeast 282 325 13,700 1,850 Climbing Atlanta Center
Sun 02:41:58 PM 34.0542 -83.5397 54° Northeast 282 325 15,500 1,850 Climbing Atlanta Center
Sun 02:42:58 PM 34.1017 -83.4617 54° Northeast 287 330 17,400 1,750 Climbing Atlanta Center
Sun 02:43:58 PM 34.1494 -83.3936 50° Northeast 275 316 19,000 1,700 Climbing Atlanta Center
Sun 02:44:58 PM 34.1908 -83.3181 56° Northeast 270 311 20,800 1,850 Climbing Atlanta Center
Sun 02:45:58 PM 34.2322 -83.2497 54° Northeast 270 311 22,700 1,550 Climbing Atlanta Center
Sun 02:46:58 PM 34.2756 -83.1792 53° Northeast 264 304 23,900 850 Climbing Atlanta Center
Sun 02:47:58 PM 34.3228 -83.1031 53° Northeast 269 310 24,400 500 Climbing Atlanta Center
Sun 02:48:58 PM 34.3744 -83.0219 52° Northeast 281 323 24,900 300 Climbing Atlanta Center
Sun 02:49:58 PM 34.4278 -82.9333 54° Northeast 307 353 25,000 50 Climbing Atlanta Center
Sun 02:50:58 PM 34.4875 -82.8392 52° Northeast 331 381 25,000  Level Atlanta Center
Sun 02:51:58 PM 34.5469 -82.7400 54° Northeast 344 396 25,000  Level Atlanta Center
Sun 02:52:58 PM 34.6108 -82.6431 51° Northeast 359 413 25,000  Level Atlanta Center
Sun 02:53:58 PM 34.6719 -82.5336 56° Northeast 359 413 25,000 150 Level Atlanta Center
Sun 02:54:58 PM 34.7314 -82.4339 54° Northeast 364 419 25,300 450 Climbing Atlanta Center
Sun 02:55:58 PM 34.7883 -82.3392 54° Northeast 364 419 25,900 600 Climbing Atlanta Center
Sun 02:56:58 PM 34.8475 -82.2367 55° Northeast 359 413 26,500 550 Climbing Atlanta Center
Sun 02:57:58 PM 34.9067 -82.1442 52° Northeast 359 413 27,000 250 Climbing Atlanta Center
Sun 02:58:58 PM 34.9614 -82.0542 53° Northeast 359 413 27,000  Level Atlanta Center
Sun 02:59:58 PM 35.0203 -81.9514 55° Northeast 364 419 27,000  Level Atlanta Center
Sun 03:00:58 PM 35.1047 -81.8833 33° Northeast 353 406 27,000  Level Atlanta Center
Sun 03:01:58 PM 35.1914 -81.8253 29° Northeast 353 406 27,000  Level Atlanta Center
Sun 03:02:58 PM 35.2778 -81.7644 30° Northeast 353 406 27,000  Level Atlanta Center
Sun 03:03:58 PM 35.3664 -81.7058 28° Northeast 353 406 27,000  Level Atlanta Center
Sun 03:04:58 PM 35.4528 -81.6447 30° Northeast 353 406 27,000  Level Atlanta Center
Sun 03:05:58 PM 35.5436 -81.5833 29° Northeast 353 406 27,000  Level Atlanta Center
Sun 03:06:58 PM 35.6422 -81.5192 28° Northeast 353 406 27,000  Level Atlanta Center
Sun 03:07:58 PM 35.7328 -81.4575 29° Northeast 358 412 27,000  Level Atlanta Center
Sun 03:08:58 PM 35.8211 -81.3906 32° Northeast 363 418 27,000 -200 Level Atlanta Center
Sun 03:09:58 PM 35.9136 -81.3261 29° Northeast 368 423 26,600 -450 Descending Atlanta Center
Sun 03:10:58 PM 36.0061 -81.2639 29° Northeast 368 423 26,100 -500 Descending Atlanta Center
Sun 03:11:58 PM 36.0983 -81.1967 30° Northeast 373 429 25,600 -500 Descending Atlanta Center
Sun 03:12:58 PM 36.1908 -81.1317 30° Northeast 373 429 25,100 -300 Descending Atlanta Center
Sun 03:13:58 PM 36.2850 -81.0664 29° Northeast 373 429 25,000 -200 Descending Atlanta Center
Sun 03:14:58 PM 36.3753 -81.0011 30° Northeast 373 429 24,700 -300 Descending Atlanta Center
Sun 03:15:58 PM 36.4675 -80.9356 30° Northeast 373 429 24,400 -550 Descending Atlanta Center
Sun 03:16:58 PM 36.5594 -80.8675 31° Northeast 373 429 23,600 -1,200 Descending Atlanta Center
Sun 03:17:58 PM 36.6558 -80.8017 29° Northeast 373 429 22,000 -1,850 Descending Atlanta Center
Sun 03:18:58 PM 36.7481 -80.7383 29° Northeast 373 429 19,900 -1,500 Descending Atlanta Center
Sun 03:19:58 PM 36.8194 -80.6833 32° Northeast 360 414 19,000 -1,650 Descending Atlanta Center
Sun 03:20:58 PM 36.8992 -80.6281 29° Northeast 334 384 16,600 -3,273 Descending Atlanta Center
Sun 03:22:00 PM 36.9750 -80.5583 39° Northeast  Level FlightAware Approximate
Sun 03:23:16 PM 37.0942 -80.5056 39° Northeast 301 346 8,200  Level Washington Center

Login

Don't have an account? Register now (free) for customized features, flight alerts, and more!